Pagina principală
METAR-TAF:

METAR-TAF

Aeroporturi :

Insula Lord Howe, Australia

Latitudine: 31-32-18S, longitudine: 159-04-38E, elevație: 5 m

Observații meteo curente

Raportul a fost făcut în urmă cu 49 de minute, la 16:30 UTC
Vânt 5 kt de la Est/Sud-est, variabil între Est și Sud-vest
Temperatură 17°C
Umiditate 68%
Presiune 1019 hPa
Vizibilitate de 10 km sau mai mult

METAR: YLHI 211630Z AUTO 12005KT 080V230 9999 // NCD 17/11 Q1019 RF00.0/000.8

Ora: 03:19 (17:19 UTC)

Prognoză

Raportul a fost făcut în urmă cu 5 ore și 59 de minute, la 11:20 UTC
Prognoză valabilă de la 21 ora 12 UTC la 22 ora 12 UTC
Vânt 12 kt de la Sud
Vizibilitate de 10 km sau mai mult
Nori împrăștiați la o înălțime de 3000 picior
averse de ploaie slabă,

TAF: YLHI 211120Z 2112/2212 19012KT 9999 -SHRA SCT030

Observații și prognoze meteo pentru peste 4.000 de aeroporturi (rapoarte METAR și TAF).

Stațiile disponibile sunt reprezentate pe hartă prin puncte galbene și roșii.

Țineți indicatorul mouse-ului pe punctul dorit pentru a vedea denumirea stației.

Apoi, faceți clic pentru a vedea observațiile și prognozele meteorologice.

Pentru a schimba harta: Pentru mărire, faceți clic pe butoanele verzi cu cruce neagră; pentru micșorare, pe butonul verde cu o liniuță; pentru hărți învecinate, pe săgețile verzi.


METAR-TAF: